createdAt,value
2023-04-16T00:01:52.175Z,78.66
2023-04-16T00:04:25.759Z,79.50
2023-04-16T00:06:58.629Z,79.39
2023-04-16T00:09:31.687Z,79.77
2023-04-16T00:12:04.666Z,79.12
2023-04-16T00:14:38.811Z,79.25
2023-04-16T00:17:12.210Z,79.36
2023-04-16T00:19:45.126Z,79.33
2023-04-16T00:22:17.805Z,79.37
2023-04-16T00:24:50.648Z,79.19
2023-04-16T00:27:23.693Z,79.54
2023-04-16T00:29:57.837Z,79.78
2023-04-16T00:32:31.926Z,79.80
2023-04-16T00:35:05.055Z,79.30
2023-04-16T00:37:37.856Z,79.37
2023-04-16T00:40:10.868Z,79.70
2023-04-16T00:42:43.640Z,79.62
2023-04-16T00:45:17.909Z,79.68
2023-04-16T00:47:51.037Z,79.70
2023-04-16T00:50:24.486Z,79.48
2023-04-16T00:52:58.177Z,79.54
2023-04-16T00:55:31.012Z,79.47
2023-04-16T00:58:04.413Z,79.20
2023-04-16T01:00:38.918Z,79.58
2023-04-16T01:03:12.125Z,80.11
2023-04-16T01:05:46.058Z,79.61
2023-04-16T01:08:19.236Z,79.64
2023-04-16T01:10:51.935Z,79.47
2023-04-16T01:13:24.702Z,79.38
2023-04-16T01:15:59.092Z,79.38
2023-04-16T01:18:31.812Z,79.32
2023-04-16T01:21:06.812Z,79.40
2023-04-16T01:23:39.646Z,79.49
2023-04-16T01:26:12.995Z,79.70
2023-04-16T01:28:45.764Z,79.35
2023-04-16T01:31:18.980Z,79.57
2023-04-16T01:33:52.111Z,79.92
2023-04-16T01:36:26.965Z,79.55
2023-04-16T01:39:00.014Z,79.70
2023-04-16T01:41:33.113Z,79.75
2023-04-16T01:44:06.029Z,79.54
2023-04-16T01:46:39.429Z,79.88
2023-04-16T01:49:12.779Z,79.57
2023-04-16T01:51:47.274Z,79.54
2023-04-16T01:54:20.464Z,79.40
2023-04-16T01:56:53.562Z,80.22
2023-04-16T01:59:26.365Z,79.80
2023-04-16T02:02:00.898Z,80.27
2023-04-16T02:04:33.880Z,79.47
2023-04-16T02:07:10.509Z,79.68
2023-04-16T02:09:43.319Z,80.21
2023-04-16T02:12:16.519Z,79.59
2023-04-16T02:14:49.383Z,79.54
2023-04-16T02:17:22.291Z,79.65
2023-04-16T02:19:55.046Z,80.18
2023-04-16T02:22:29.627Z,79.85
2023-04-16T02:25:02.394Z,79.87
2023-04-16T02:27:35.508Z,79.30
2023-04-16T02:30:08.976Z,79.92
2023-04-16T02:32:41.848Z,79.67
2023-04-16T02:35:14.714Z,79.74
2023-04-16T02:37:49.287Z,79.57
2023-04-16T02:40:22.145Z,79.85
2023-04-16T02:42:55.013Z,79.92
2023-04-16T02:45:27.811Z,79.49
2023-04-16T02:48:01.341Z,80.08
2023-04-16T02:50:34.167Z,79.56
2023-04-16T02:53:08.503Z,79.74
2023-04-16T02:55:41.520Z,79.80
2023-04-16T02:58:14.729Z,79.47
2023-04-16T03:00:47.562Z,79.59
2023-04-16T03:03:20.771Z,79.97
2023-04-16T03:05:53.488Z,80.04
2023-04-16T03:08:28.033Z,80.10
2023-04-16T03:11:00.797Z,80.08
2023-04-16T03:13:33.585Z,79.87
2023-04-16T03:16:06.622Z,79.67
2023-04-16T03:18:39.713Z,80.10
2023-04-16T03:21:12.965Z,80.31
2023-04-16T03:23:47.182Z,80.05
2023-04-16T03:26:19.859Z,79.77
2023-04-16T03:28:52.619Z,80.01
2023-04-16T03:31:25.735Z,79.92
2023-04-16T03:33:58.604Z,79.82
2023-04-16T03:36:31.503Z,79.97
2023-04-16T03:39:05.718Z,80.22
2023-04-16T03:41:40.910Z,80.09
2023-04-16T03:44:13.641Z,79.82
2023-04-16T03:46:46.624Z,80.25
2023-04-16T03:49:19.434Z,79.65
2023-04-16T03:51:52.365Z,79.91
2023-04-16T03:54:27.118Z,79.90
2023-04-16T03:57:00.197Z,80.24
2023-04-16T03:59:33.371Z,79.85
2023-04-16T04:02:06.452Z,80.03
2023-04-16T04:04:39.405Z,79.76
2023-04-16T04:07:12.248Z,80.07
2023-04-16T04:09:46.455Z,80.13
2023-04-16T04:12:19.110Z,79.79
2023-04-16T04:14:51.916Z,79.96
2023-04-16T04:17:25.353Z,79.66
2023-04-16T04:20:01.431Z,80.05
2023-04-16T04:22:34.685Z,80.36
2023-04-16T04:25:09.268Z,80.10
2023-04-16T04:27:41.941Z,79.75
2023-04-16T04:30:14.709Z,79.90
2023-04-16T04:32:47.541Z,79.89
2023-04-16T04:35:21.132Z,79.80
2023-04-16T04:37:53.909Z,79.90
2023-04-16T04:40:28.565Z,80.11
2023-04-16T04:43:01.421Z,80.40
2023-04-16T04:45:34.324Z,79.85
2023-04-16T04:48:07.154Z,79.75
2023-04-16T04:50:41.112Z,79.81
2023-04-16T04:53:14.981Z,80.02
2023-04-16T04:55:53.105Z,79.92
2023-04-16T04:58:27.295Z,79.83
2023-04-16T05:01:00.793Z,79.98
2023-04-16T05:03:33.870Z,80.26
2023-04-16T05:06:06.902Z,80.06
2023-04-16T05:08:40.008Z,80.14
2023-04-16T05:11:14.473Z,80.56
2023-04-16T05:13:47.317Z,80.50
2023-04-16T05:16:20.190Z,80.41
2023-04-16T05:18:53.347Z,80.42
2023-04-16T05:21:26.949Z,80.74
2023-04-16T05:24:00.382Z,80.63
2023-04-16T05:26:34.743Z,80.64
2023-04-16T05:29:07.844Z,80.91
2023-04-16T05:31:41.156Z,80.87
2023-04-16T05:34:14.155Z,80.43
2023-04-16T05:36:47.136Z,80.24
2023-04-16T05:39:20.830Z,80.90
2023-04-16T05:41:55.369Z,80.40
2023-04-16T05:44:28.121Z,80.36
2023-04-16T05:47:01.071Z,80.54
2023-04-16T05:49:33.914Z,80.82
2023-04-16T05:52:07.571Z,80.06
2023-04-16T05:54:40.335Z,80.57
2023-04-16T05:57:14.939Z,80.58
2023-04-16T05:59:47.837Z,80.62
2023-04-16T06:02:20.977Z,80.69
2023-04-16T06:04:53.696Z,80.93
2023-04-16T06:07:26.429Z,80.66
2023-04-16T06:09:59.106Z,81.14
2023-04-16T06:12:33.332Z,80.96
2023-04-16T06:15:06.920Z,81.32
2023-04-16T06:17:40.219Z,80.52
2023-04-16T06:20:13.544Z,81.40
2023-04-16T06:22:46.333Z,80.64
2023-04-16T06:25:19.196Z,81.05
2023-04-16T06:27:53.692Z,81.15
2023-04-16T06:30:26.905Z,81.47
2023-04-16T06:33:00.064Z,81.07
2023-04-16T06:35:32.980Z,81.04
2023-04-16T06:38:05.962Z,80.94
2023-04-16T06:40:39.461Z,81.42
2023-04-16T06:43:14.067Z,81.02
2023-04-16T06:45:47.135Z,80.85
2023-04-16T06:48:19.957Z,80.98
2023-04-16T06:50:52.697Z,81.01
2023-04-16T06:53:25.605Z,80.82
2023-04-16T06:55:58.994Z,80.90
2023-04-16T06:58:33.364Z,80.97
2023-04-16T07:01:06.292Z,80.80
2023-04-16T07:03:39.317Z,80.84
2023-04-16T07:06:12.708Z,81.13
2023-04-16T07:08:45.466Z,80.79
2023-04-16T07:11:19.309Z,80.51
2023-04-16T07:13:54.524Z,80.71
2023-04-16T07:16:27.282Z,80.62
2023-04-16T07:19:00.072Z,81.06
2023-04-16T07:21:32.845Z,80.57
2023-04-16T07:24:05.956Z,80.70
2023-04-16T07:26:39.236Z,80.95
2023-04-16T07:29:13.850Z,80.73
2023-04-16T07:31:46.714Z,80.80
2023-04-16T07:34:19.723Z,80.72
2023-04-16T07:36:52.790Z,80.57
2023-04-16T07:39:26.111Z,80.77
2023-04-16T07:41:58.920Z,80.31
2023-04-16T07:44:33.298Z,80.52
2023-04-16T07:47:06.160Z,79.89
2023-04-16T07:49:39.228Z,79.81
2023-04-16T07:52:13.608Z,79.68
2023-04-16T07:54:46.434Z,79.50
2023-04-16T07:57:19.470Z,79.70
2023-04-16T07:59:53.700Z,79.86
2023-04-16T08:02:28.023Z,79.24
2023-04-16T08:05:01.576Z,79.36
2023-04-16T08:07:34.968Z,79.15
2023-04-16T08:10:08.735Z,79.37
2023-04-16T08:12:41.519Z,79.24
2023-04-16T08:15:15.728Z,79.30
2023-04-16T08:17:48.980Z,79.13
2023-04-16T08:20:21.847Z,78.41
2023-04-16T08:22:54.846Z,78.94
2023-04-16T08:25:27.711Z,79.45
2023-04-16T08:28:00.895Z,79.35
2023-04-16T08:30:35.464Z,80.01
2023-04-16T08:33:08.335Z,80.09
2023-04-16T08:35:41.231Z,79.88
2023-04-16T08:38:13.960Z,79.64
2023-04-16T08:40:46.968Z,80.41
2023-04-16T08:43:20.381Z,79.90
2023-04-16T08:45:56.624Z,80.08
2023-04-16T08:48:31.816Z,80.15
2023-04-16T08:51:04.661Z,80.43
2023-04-16T08:53:43.410Z,80.36
2023-04-16T08:56:17.080Z,80.55
2023-04-16T08:58:51.669Z,80.15
2023-04-16T09:01:26.702Z,79.76
2023-04-16T09:04:01.778Z,79.91
2023-04-16T09:06:35.141Z,80.06
2023-04-16T09:09:08.623Z,79.44
2023-04-16T09:11:41.606Z,80.09
2023-04-16T09:14:14.941Z,79.93
2023-04-16T09:16:49.246Z,80.18
2023-04-16T09:19:21.988Z,80.31
2023-04-16T09:21:55.232Z,80.74
2023-04-16T09:24:28.306Z,81.06
2023-04-16T09:27:02.152Z,80.92
2023-04-16T09:29:36.279Z,81.43
2023-04-16T09:32:11.477Z,81.73
2023-04-16T09:34:57.749Z,81.14
2023-04-16T09:37:31.682Z,81.91
2023-04-16T09:40:05.854Z,82.07
2023-04-16T09:42:38.997Z,81.36
2023-04-16T09:45:12.652Z,81.73
2023-04-16T09:47:47.569Z,81.73
2023-04-16T09:50:21.322Z,81.75
2023-04-16T09:52:54.230Z,81.55
2023-04-16T09:55:28.432Z,81.91
2023-04-16T09:58:01.987Z,82.27
2023-04-16T10:00:34.937Z,81.96
2023-04-16T10:03:09.586Z,82.31
2023-04-16T10:05:43.011Z,82.58
2023-04-16T10:08:16.020Z,82.63
2023-04-16T10:10:48.988Z,82.98
2023-04-16T10:13:22.044Z,83.05
2023-04-16T10:15:56.802Z,83.53
2023-04-16T10:18:31.941Z,82.96
2023-04-16T10:21:05.414Z,82.98
2023-04-16T10:23:40.005Z,82.77
2023-04-16T10:26:12.809Z,82.53
2023-04-16T10:28:46.426Z,82.52
2023-04-16T10:31:19.387Z,81.94
2023-04-16T10:33:53.909Z,81.65
2023-04-16T10:36:27.963Z,81.47
2023-04-16T10:39:01.196Z,81.13
2023-04-16T10:41:34.642Z,80.93
2023-04-16T10:44:09.950Z,80.96
2023-04-16T10:46:43.434Z,81.30
2023-04-16T10:49:19.350Z,80.96
2023-04-16T10:51:55.978Z,81.50
2023-04-16T10:54:29.610Z,82.08
2023-04-16T10:57:04.807Z,82.67
2023-04-16T10:59:38.989Z,82.90
2023-04-16T11:02:14.322Z,82.97
2023-04-16T11:04:50.820Z,82.96
2023-04-16T11:07:32.562Z,82.86
2023-04-16T11:10:06.161Z,82.52
2023-04-16T11:12:39.483Z,82.45
2023-04-16T11:15:13.131Z,82.46
2023-04-16T11:17:46.766Z,82.17
2023-04-16T11:20:21.776Z,82.03
2023-04-16T11:22:55.572Z,81.99
2023-04-16T11:25:29.943Z,81.94
2023-04-16T11:28:03.449Z,82.11
2023-04-16T11:30:36.719Z,82.00
2023-04-16T11:33:10.161Z,81.77
2023-04-16T11:35:46.163Z,81.48
2023-04-16T11:38:19.787Z,81.36
2023-04-16T11:40:54.548Z,81.17
2023-04-16T11:43:30.393Z,81.08
2023-04-16T11:46:10.313Z,80.67
2023-04-16T11:48:54.135Z,80.53
2023-04-16T11:51:28.791Z,80.63
2023-04-16T11:54:01.952Z,80.20
2023-04-16T11:56:36.129Z,80.16
2023-04-16T11:59:13.435Z,80.10
2023-04-16T12:01:50.696Z,79.93
2023-04-16T12:04:25.201Z,79.85
2023-04-16T12:07:12.690Z,80.08
2023-04-16T12:09:45.498Z,80.53
2023-04-16T12:12:27.571Z,80.89
2023-04-16T12:15:03.640Z,81.59
2023-04-16T12:17:37.257Z,82.20
2023-04-16T12:20:11.203Z,82.80
2023-04-16T12:22:47.920Z,83.38
2023-04-16T12:25:21.196Z,83.80
2023-04-16T12:27:56.077Z,84.20
2023-04-16T12:30:31.013Z,83.97
2023-04-16T12:33:16.693Z,83.51
2023-04-16T12:35:49.960Z,82.87
2023-04-16T12:38:25.618Z,82.44
2023-04-16T12:40:58.528Z,81.54
2023-04-16T12:43:31.297Z,81.13
2023-04-16T12:46:04.570Z,80.58
2023-04-16T12:48:38.015Z,80.44
2023-04-16T12:51:10.946Z,80.06
2023-04-16T12:53:45.140Z,79.92
2023-04-16T12:56:17.956Z,79.83
2023-04-16T12:58:52.053Z,79.75
2023-04-16T13:01:25.041Z,79.98
2023-04-16T13:03:58.136Z,79.88
2023-04-16T13:06:32.656Z,79.96
2023-04-16T13:09:09.925Z,80.19
2023-04-16T13:11:42.975Z,80.10
2023-04-16T13:14:16.070Z,80.48
2023-04-16T13:16:48.835Z,81.31
2023-04-16T13:19:21.637Z,81.93
2023-04-16T13:21:54.632Z,82.77
2023-04-16T13:24:28.987Z,83.02
2023-04-16T13:27:01.805Z,83.32
2023-04-16T13:29:36.713Z,83.49
2023-04-16T13:32:13.785Z,83.10
2023-04-16T13:34:47.313Z,82.95
2023-04-16T13:37:20.389Z,82.56
2023-04-16T13:39:55.037Z,81.82
2023-04-16T13:42:28.824Z,81.59
2023-04-16T13:45:02.280Z,81.03
2023-04-16T13:47:35.382Z,80.83
2023-04-16T13:50:08.453Z,80.67
2023-04-16T13:52:41.728Z,81.00
2023-04-16T13:55:19.292Z,80.83
2023-04-16T13:57:53.407Z,80.46
2023-04-16T14:00:27.632Z,80.42
2023-04-16T14:03:00.744Z,80.21
2023-04-16T14:05:33.931Z,80.35
2023-04-16T14:08:07.104Z,80.45
2023-04-16T14:10:41.946Z,80.54
2023-04-16T14:13:14.847Z,80.72
2023-04-16T14:15:48.055Z,80.84
2023-04-16T14:18:20.834Z,81.04
2023-04-16T14:20:53.872Z,81.22
2023-04-16T14:23:27.187Z,81.54
2023-04-16T14:26:01.406Z,81.65
2023-04-16T14:28:37.007Z,81.51
2023-04-16T14:31:10.079Z,81.70
2023-04-16T14:33:42.861Z,81.58
2023-04-16T14:36:15.857Z,81.37
2023-04-16T14:38:48.936Z,81.19
2023-04-16T14:41:23.261Z,80.97
2023-04-16T14:43:56.308Z,80.85
2023-04-16T14:46:29.097Z,80.89
2023-04-16T14:49:02.155Z,80.60
2023-04-16T14:51:35.142Z,80.57
2023-04-16T14:54:08.294Z,80.41
2023-04-16T14:56:42.571Z,80.45
2023-04-16T14:59:18.504Z,80.23
2023-04-16T15:01:51.730Z,79.78
2023-04-16T15:04:25.563Z,79.73
2023-04-16T15:06:59.308Z,79.78
2023-04-16T15:09:32.766Z,79.71
2023-04-16T15:12:07.213Z,79.62
2023-04-16T15:14:40.584Z,79.64
2023-04-16T15:17:13.950Z,79.57
2023-04-16T15:19:47.044Z,79.81
2023-04-16T15:22:20.211Z,79.91
2023-04-16T15:24:54.138Z,79.74
2023-04-16T15:27:30.818Z,79.96
2023-04-16T15:30:03.977Z,80.10
2023-04-16T15:32:37.080Z,80.03
2023-04-16T15:35:11.454Z,80.11
2023-04-16T15:37:44.385Z,80.00
2023-04-16T15:40:19.040Z,80.00
2023-04-16T15:42:53.278Z,80.04
2023-04-16T15:45:26.674Z,79.74
2023-04-16T15:47:59.561Z,79.58
2023-04-16T15:50:32.965Z,80.12
2023-04-16T15:53:06.795Z,79.97
2023-04-16T15:55:39.525Z,79.72
2023-04-16T15:58:16.109Z,79.96
2023-04-16T16:00:50.244Z,79.82
2023-04-16T16:03:23.220Z,79.71
2023-04-16T16:05:59.371Z,80.13
2023-04-16T16:08:35.457Z,79.75
2023-04-16T16:11:08.421Z,79.28
2023-04-16T16:13:43.750Z,79.39
2023-04-16T16:16:19.049Z,79.52
2023-04-16T16:18:52.038Z,79.31
2023-04-16T16:21:24.880Z,79.48
2023-04-16T16:23:58.206Z,79.63
2023-04-16T16:26:31.009Z,79.20
2023-04-16T16:29:05.265Z,79.85
2023-04-16T16:31:38.552Z,79.17
2023-04-16T16:34:20.102Z,79.49
2023-04-16T16:36:53.790Z,79.14
2023-04-16T16:39:26.787Z,79.48
2023-04-16T16:41:59.583Z,79.14
2023-04-16T16:44:33.911Z,79.26
2023-04-16T16:47:06.985Z,79.60
2023-04-16T16:49:39.841Z,79.60
2023-04-16T16:52:12.811Z,79.76
2023-04-16T16:54:45.952Z,79.85
2023-04-16T16:57:19.348Z,79.89
2023-04-16T16:59:55.485Z,79.55
2023-04-16T17:02:28.768Z,79.73
2023-04-16T17:05:01.845Z,79.65
2023-04-16T17:07:34.694Z,79.89
2023-04-16T17:10:07.895Z,79.85
2023-04-16T17:12:41.003Z,79.36
2023-04-16T17:15:15.160Z,79.09
2023-04-16T17:17:48.711Z,79.42
2023-04-16T17:20:21.664Z,79.21
2023-04-16T17:22:54.549Z,79.75
2023-04-16T17:25:27.353Z,80.02
2023-04-16T17:28:00.825Z,80.06
2023-04-16T17:30:34.962Z,80.54
2023-04-16T17:33:08.176Z,80.24
2023-04-16T17:35:41.553Z,80.79
2023-04-16T17:38:14.556Z,81.14
2023-04-16T17:40:47.497Z,80.65
2023-04-16T17:43:20.233Z,81.38
2023-04-16T17:45:54.663Z,81.25
2023-04-16T17:48:27.662Z,80.66
2023-04-16T17:51:00.566Z,81.11
2023-04-16T17:53:33.244Z,80.33
2023-04-16T17:56:06.381Z,81.26
2023-04-16T17:58:39.400Z,80.60
2023-04-16T18:01:14.075Z,80.66
2023-04-16T18:03:47.326Z,81.30
2023-04-16T18:06:21.054Z,81.03
2023-04-16T18:08:53.844Z,80.62
2023-04-16T18:11:28.863Z,80.88
2023-04-16T18:14:03.232Z,80.96
2023-04-16T18:16:37.412Z,80.44
2023-04-16T18:19:10.162Z,81.01
2023-04-16T18:21:43.003Z,81.02
2023-04-16T18:24:16.036Z,80.76
2023-04-16T18:26:49.226Z,80.71
2023-04-16T18:29:24.817Z,80.67
2023-04-16T18:32:00.325Z,79.94
2023-04-16T18:34:34.850Z,80.67
2023-04-16T18:37:08.071Z,80.04
2023-04-16T18:39:41.144Z,80.16
2023-04-16T18:42:14.290Z,80.63
2023-04-16T18:44:52.423Z,80.31
2023-04-16T18:47:29.299Z,80.73
2023-04-16T18:50:02.066Z,80.34
2023-04-16T18:52:35.677Z,80.85
2023-04-16T18:55:08.981Z,80.16
2023-04-16T18:57:41.869Z,80.24
2023-04-16T19:00:15.751Z,80.71
2023-04-16T19:02:50.169Z,80.71
2023-04-16T19:05:23.140Z,80.76
2023-04-16T19:07:55.978Z,80.66
2023-04-16T19:10:28.670Z,80.68
2023-04-16T19:13:01.807Z,80.42
2023-04-16T19:15:35.072Z,80.87
2023-04-16T19:18:09.682Z,80.90
2023-04-16T19:20:42.426Z,80.80
2023-04-16T19:23:15.514Z,80.62
2023-04-16T19:25:49.836Z,80.65
2023-04-16T19:28:23.132Z,80.36
2023-04-16T19:30:56.298Z,80.56
2023-04-16T19:33:31.462Z,80.88
2023-04-16T19:36:04.550Z,81.17
2023-04-16T19:38:37.420Z,80.22
2023-04-16T19:41:10.296Z,80.47
2023-04-16T19:43:43.215Z,81.02
2023-04-16T19:46:17.259Z,80.47
2023-04-16T19:48:51.461Z,80.19
2023-04-16T19:51:24.749Z,80.91
2023-04-16T19:53:59.004Z,80.81
2023-04-16T19:56:31.889Z,80.22
2023-04-16T19:59:05.366Z,80.55
2023-04-16T20:01:38.364Z,80.37
2023-04-16T20:04:13.242Z,81.06
2023-04-16T20:06:46.712Z,80.70
2023-04-16T20:09:20.374Z,80.23
2023-04-16T20:11:53.450Z,80.27
2023-04-16T20:14:26.256Z,80.99
2023-04-16T20:16:59.416Z,80.27
2023-04-16T20:19:38.086Z,81.00
2023-04-16T20:22:10.887Z,80.66
2023-04-16T20:24:47.701Z,80.47
2023-04-16T20:27:21.044Z,80.41
2023-04-16T20:29:54.443Z,80.42
2023-04-16T20:32:28.002Z,80.07
2023-04-16T20:35:04.458Z,80.85
2023-04-16T20:37:42.246Z,80.45
2023-04-16T20:40:18.844Z,80.39
2023-04-16T20:42:54.837Z,80.16
2023-04-16T20:45:32.075Z,79.99
2023-04-16T20:48:05.276Z,80.48
2023-04-16T20:50:39.659Z,80.68
2023-04-16T20:53:13.124Z,80.42
2023-04-16T20:55:45.904Z,80.41
2023-04-16T20:58:18.674Z,80.68
2023-04-16T21:00:51.933Z,80.29
2023-04-16T21:03:25.355Z,80.72
2023-04-16T21:05:59.879Z,80.43
2023-04-16T21:08:32.737Z,80.31
2023-04-16T21:11:05.536Z,80.40
2023-04-16T21:13:38.309Z,80.51
2023-04-16T21:16:13.690Z,80.19
2023-04-16T21:18:46.512Z,80.84
2023-04-16T21:21:21.003Z,80.72
2023-04-16T21:23:53.670Z,80.79
2023-04-16T21:26:26.601Z,80.52
2023-04-16T21:28:59.420Z,80.41
2023-04-16T21:31:32.370Z,80.49
2023-04-16T21:34:05.153Z,80.59
2023-04-16T21:36:39.297Z,80.60
2023-04-16T21:39:12.666Z,80.46
2023-04-16T21:41:45.716Z,80.56
2023-04-16T21:44:18.914Z,80.43
2023-04-16T21:46:51.761Z,80.47
2023-04-16T21:49:24.519Z,81.17
2023-04-16T21:51:59.346Z,80.57
2023-04-16T21:54:32.370Z,80.83
2023-04-16T21:57:05.176Z,80.44
2023-04-16T21:59:38.238Z,80.46
2023-04-16T22:02:11.156Z,80.69
2023-04-16T22:04:43.895Z,80.64
2023-04-16T22:07:20.832Z,80.46
2023-04-16T22:09:53.660Z,80.58
2023-04-16T22:12:26.404Z,80.32
2023-04-16T22:15:02.702Z,80.65
2023-04-16T22:17:36.270Z,80.62
2023-04-16T22:20:12.316Z,80.83
2023-04-16T22:22:46.767Z,80.42
2023-04-16T22:25:19.652Z,80.46
2023-04-16T22:27:53.105Z,80.43
2023-04-16T22:30:25.760Z,80.74
2023-04-16T22:32:58.686Z,80.69
2023-04-16T22:35:31.943Z,80.66
2023-04-16T22:38:07.799Z,80.71
2023-04-16T22:40:40.735Z,80.60
2023-04-16T22:43:13.893Z,81.19
2023-04-16T22:45:48.003Z,81.09
2023-04-16T22:48:20.830Z,80.40
2023-04-16T22:50:53.564Z,81.09
2023-04-16T22:53:27.676Z,80.67
2023-04-16T22:56:00.543Z,80.46
2023-04-16T22:58:33.297Z,80.67
2023-04-16T23:01:06.710Z,80.59
2023-04-16T23:03:39.692Z,80.62
2023-04-16T23:06:12.490Z,81.05
2023-04-16T23:08:46.606Z,80.75
2023-04-16T23:11:19.299Z,80.50
2023-04-16T23:13:52.601Z,80.82
2023-04-16T23:16:26.088Z,80.86
2023-04-16T23:18:58.956Z,80.86
2023-04-16T23:21:32.600Z,80.83
2023-04-16T23:24:07.365Z,81.14
2023-04-16T23:26:40.061Z,80.80
2023-04-16T23:29:13.245Z,81.26
2023-04-16T23:31:46.134Z,80.71
2023-04-16T23:34:19.017Z,80.52
2023-04-16T23:36:51.850Z,80.97
2023-04-16T23:39:26.407Z,81.37
2023-04-16T23:41:59.334Z,80.95
2023-04-16T23:44:32.510Z,80.48
2023-04-16T23:47:05.560Z,81.09
2023-04-16T23:49:38.491Z,80.82
2023-04-16T23:52:11.282Z,80.83
2023-04-16T23:54:45.769Z,80.58
2023-04-16T23:57:18.463Z,80.77
2023-04-16T23:59:51.582Z,81.08
